sensor_id;sensor_type;location;lat;lon;timestamp;P1;durP1;ratioP1;P2;durP2;ratioP2
16387;SDS011;8303;53.446;9.988;2023-05-23T04:41:04;303.23;;;283.50;;
16387;SDS011;8303;53.446;9.988;2023-05-23T04:43:34;261.23;;;243.57;;
16387;SDS011;8303;53.446;9.988;2023-05-23T04:46:01;318.70;;;297.80;;
16387;SDS011;8303;53.446;9.988;2023-05-23T04:48:28;302.13;;;282.50;;
16387;SDS011;8303;53.446;9.988;2023-05-23T04:50:58;307.53;;;287.77;;
16387;SDS011;8303;53.446;9.988;2023-05-23T04:53:26;334.43;;;312.50;;
16387;SDS011;8303;53.446;9.988;2023-05-23T04:55:53;319.67;;;299.83;;
16387;SDS011;8303;53.446;9.988;2023-05-23T04:58:22;337.07;;;315.67;;
16387;SDS011;8303;53.446;9.988;2023-05-23T05:00:48;319.83;;;299.03;;
16387;SDS011;8303;53.446;9.988;2023-05-23T05:03:15;320.03;;;299.27;;
16387;SDS011;8303;53.446;9.988;2023-05-23T05:05:42;353.77;;;331.47;;
16387;SDS011;8303;53.446;9.988;2023-05-23T05:08:09;339.43;;;317.50;;
16387;SDS011;8303;53.446;9.988;2023-05-23T05:10:38;334.00;;;311.60;;
16387;SDS011;8303;53.446;9.988;2023-05-23T05:13:06;310.20;;;289.97;;
16387;SDS011;8303;53.446;9.988;2023-05-23T05:15:35;314.33;;;294.00;;
16387;SDS011;8303;53.446;9.988;2023-05-23T05:18:02;340.73;;;318.73;;
16387;SDS011;8303;53.446;9.988;2023-05-23T05:20:30;341.90;;;319.47;;
16387;SDS011;8303;53.446;9.988;2023-05-23T05:22:57;312.93;;;291.93;;
16387;SDS011;8303;53.446;9.988;2023-05-23T05:25:24;329.53;;;307.13;;
16387;SDS011;8303;53.446;9.988;2023-05-23T05:27:56;356.30;;;332.83;;
16387;SDS011;8303;53.446;9.988;2023-05-23T05:30:23;324.70;;;302.47;;
16387;SDS011;8303;53.446;9.988;2023-05-23T05:32:52;327.70;;;305.77;;
16387;SDS011;8303;53.446;9.988;2023-05-23T05:35:22;318.63;;;296.77;;
16387;SDS011;8303;53.446;9.988;2023-05-23T05:37:49;340.17;;;317.27;;
16387;SDS011;8303;53.446;9.988;2023-05-23T05:40:16;329.73;;;306.80;;
16387;SDS011;8303;53.446;9.988;2023-05-23T05:42:44;320.97;;;299.33;;
16387;SDS011;8303;53.446;9.988;2023-05-23T05:45:11;366.27;;;341.87;;
16387;SDS011;8303;53.446;9.988;2023-05-23T05:47:38;323.93;;;302.33;;
16387;SDS011;8303;53.446;9.988;2023-05-23T05:50:07;343.77;;;320.20;;
16387;SDS011;8303;53.446;9.988;2023-05-23T05:52:35;349.57;;;325.37;;
16387;SDS011;8303;53.446;9.988;2023-05-23T05:55:04;356.53;;;332.40;;
16387;SDS011;8303;53.446;9.988;2023-05-23T05:57:32;342.93;;;319.60;;
16387;SDS011;8303;53.446;9.988;2023-05-23T06:00:03;342.63;;;318.77;;
16387;SDS011;8303;53.446;9.988;2023-05-23T06:02:37;323.40;;;301.30;;
16387;SDS011;8303;53.446;9.988;2023-05-23T06:05:07;326.07;;;303.60;;
16387;SDS011;8303;53.446;9.988;2023-05-23T06:07:36;323.40;;;301.57;;
16387;SDS011;8303;53.446;9.988;2023-05-23T06:10:04;342.97;;;319.43;;
16387;SDS011;8303;53.446;9.988;2023-05-23T06:12:33;343.60;;;319.90;;
16387;SDS011;8303;53.446;9.988;2023-05-23T06:15:00;342.83;;;320.47;;
16387;SDS011;8303;53.446;9.988;2023-05-23T06:17:29;348.03;;;325.27;;
16387;SDS011;8303;53.446;9.988;2023-05-23T06:19:56;335.20;;;312.93;;
16387;SDS011;8303;53.446;9.988;2023-05-23T06:22:25;331.63;;;310.17;;
16387;SDS011;8303;53.446;9.988;2023-05-23T06:24:52;334.50;;;312.70;;
16387;SDS011;8303;53.446;9.988;2023-05-23T06:27:19;348.60;;;326.13;;
16387;SDS011;8303;53.446;9.988;2023-05-23T06:29:46;341.03;;;318.63;;
16387;SDS011;8303;53.446;9.988;2023-05-23T06:32:13;350.10;;;327.20;;
16387;SDS011;8303;53.446;9.988;2023-05-23T06:34:41;325.87;;;304.10;;
16387;SDS011;8303;53.446;9.988;2023-05-23T06:37:08;356.03;;;332.43;;
16387;SDS011;8303;53.446;9.988;2023-05-23T06:39:36;351.53;;;328.77;;
16387;SDS011;8303;53.446;9.988;2023-05-23T06:42:04;338.37;;;316.23;;
16387;SDS011;8303;53.446;9.988;2023-05-23T06:44:32;343.93;;;319.87;;
16387;SDS011;8303;53.446;9.988;2023-05-23T06:46:59;330.90;;;308.37;;
16387;SDS011;8303;53.446;9.988;2023-05-23T06:49:26;348.37;;;324.37;;
16387;SDS011;8303;53.446;9.988;2023-05-23T06:51:53;348.13;;;325.00;;
16387;SDS011;8303;53.446;9.988;2023-05-23T06:54:21;354.83;;;330.93;;
16387;SDS011;8303;53.446;9.988;2023-05-23T06:56:49;366.87;;;341.93;;
16387;SDS011;8303;53.446;9.988;2023-05-23T06:59:17;357.00;;;333.57;;
16387;SDS011;8303;53.446;9.988;2023-05-23T07:01:45;344.90;;;322.47;;
16387;SDS011;8303;53.446;9.988;2023-05-23T07:04:12;351.47;;;328.53;;
16387;SDS011;8303;53.446;9.988;2023-05-23T07:06:42;344.33;;;322.07;;
16387;SDS011;8303;53.446;9.988;2023-05-23T07:09:10;372.80;;;348.77;;
16387;SDS011;8303;53.446;9.988;2023-05-23T07:11:37;421.50;;;394.77;;
16387;SDS011;8303;53.446;9.988;2023-05-23T07:14:06;353.67;;;331.90;;
16387;SDS011;8303;53.446;9.988;2023-05-23T07:16:33;346.93;;;325.13;;
16387;SDS011;8303;53.446;9.988;2023-05-23T07:19:01;377.67;;;352.70;;
16387;SDS011;8303;53.446;9.988;2023-05-23T07:21:29;321.23;;;301.60;;
16387;SDS011;8303;53.446;9.988;2023-05-23T07:23:57;351.93;;;328.50;;
16387;SDS011;8303;53.446;9.988;2023-05-23T07:26:24;337.60;;;317.93;;
16387;SDS011;8303;53.446;9.988;2023-05-23T07:28:51;334.13;;;314.40;;
16387;SDS011;8303;53.446;9.988;2023-05-23T07:31:20;376.43;;;354.17;;
16387;SDS011;8303;53.446;9.988;2023-05-23T07:33:47;344.67;;;324.57;;
16387;SDS011;8303;53.446;9.988;2023-05-23T07:36:14;376.03;;;353.47;;
16387;SDS011;8303;53.446;9.988;2023-05-23T07:38:42;415.23;;;385.43;;
16387;SDS011;8303;53.446;9.988;2023-05-23T07:41:09;345.43;;;325.33;;
16387;SDS011;8303;53.446;9.988;2023-05-23T07:43:37;376.03;;;353.87;;
16387;SDS011;8303;53.446;9.988;2023-05-23T07:46:04;320.73;;;302.67;;
16387;SDS011;8303;53.446;9.988;2023-05-23T07:48:33;324.10;;;305.83;;
16387;SDS011;8303;53.446;9.988;2023-05-23T07:51:00;344.53;;;323.30;;
16387;SDS011;8303;53.446;9.988;2023-05-23T07:53:28;361.97;;;341.73;;
16387;SDS011;8303;53.446;9.988;2023-05-23T07:55:55;372.37;;;351.13;;
16387;SDS011;8303;53.446;9.988;2023-05-23T07:58:22;733.43;;;665.97;;
16387;SDS011;8303;53.446;9.988;2023-05-23T08:00:49;386.10;;;363.80;;
16387;SDS011;8303;53.446;9.988;2023-05-23T08:03:16;661.83;;;612.90;;
16387;SDS011;8303;53.446;9.988;2023-05-23T08:05:45;334.10;;;315.37;;
16387;SDS011;8303;53.446;9.988;2023-05-23T08:08:12;347.63;;;328.20;;
16387;SDS011;8303;53.446;9.988;2023-05-23T08:10:40;461.63;;;428.50;;
16387;SDS011;8303;53.446;9.988;2023-05-23T08:13:08;418.33;;;394.53;;
16387;SDS011;8303;53.446;9.988;2023-05-23T08:15:35;363.33;;;338.53;;
16387;SDS011;8303;53.446;9.988;2023-05-23T08:18:02;421.13;;;390.17;;
16387;SDS011;8303;53.446;9.988;2023-05-23T08:20:30;410.27;;;384.37;;
16387;SDS011;8303;53.446;9.988;2023-05-23T08:22:59;291.57;;;275.33;;
16387;SDS011;8303;53.446;9.988;2023-05-23T08:25:27;350.40;;;329.07;;
16387;SDS011;8303;53.446;9.988;2023-05-23T08:27:56;530.73;;;487.07;;
16387;SDS011;8303;53.446;9.988;2023-05-23T08:30:26;252.90;;;239.00;;
16387;SDS011;8303;53.446;9.988;2023-05-23T08:32:54;404.90;;;378.83;;
16387;SDS011;8303;53.446;9.988;2023-05-23T08:35:22;704.20;;;639.70;;
16387;SDS011;8303;53.446;9.988;2023-05-23T08:37:49;241.93;;;227.93;;
16387;SDS011;8303;53.446;9.988;2023-05-23T08:40:19;235.40;;;222.13;;
16387;SDS011;8303;53.446;9.988;2023-05-23T08:42:48;248.37;;;234.63;;
16387;SDS011;8303;53.446;9.988;2023-05-23T08:45:16;279.87;;;264.23;;
16387;SDS011;8303;53.446;9.988;2023-05-23T08:47:44;220.57;;;207.73;;
16387;SDS011;8303;53.446;9.988;2023-05-23T08:50:13;258.47;;;244.17;;
16387;SDS011;8303;53.446;9.988;2023-05-23T08:52:46;252.70;;;237.67;;
16387;SDS011;8303;53.446;9.988;2023-05-23T08:55:22;319.37;;;298.70;;
16387;SDS011;8303;53.446;9.988;2023-05-23T08:57:50;225.37;;;212.73;;
16387;SDS011;8303;53.446;9.988;2023-05-23T09:00:18;428.80;;;392.77;;
16387;SDS011;8303;53.446;9.988;2023-05-23T09:02:46;244.83;;;231.13;;
16387;SDS011;8303;53.446;9.988;2023-05-23T09:05:16;240.00;;;226.73;;
16387;SDS011;8303;53.446;9.988;2023-05-23T09:07:44;273.77;;;256.43;;
16387;SDS011;8303;53.446;9.988;2023-05-23T09:10:13;236.67;;;223.20;;
16387;SDS011;8303;53.446;9.988;2023-05-23T09:12:43;243.93;;;230.47;;
16387;SDS011;8303;53.446;9.988;2023-05-23T09:15:11;252.07;;;237.40;;
16387;SDS011;8303;53.446;9.988;2023-05-23T09:17:38;219.87;;;206.70;;
16387;SDS011;8303;53.446;9.988;2023-05-23T09:20:09;249.13;;;234.80;;
16387;SDS011;8303;53.446;9.988;2023-05-23T09:22:38;266.63;;;246.80;;
16387;SDS011;8303;53.446;9.988;2023-05-23T09:25:06;246.67;;;229.63;;
16387;SDS011;8303;53.446;9.988;2023-05-23T09:27:34;188.17;;;176.67;;
16387;SDS011;8303;53.446;9.988;2023-05-23T09:30:06;177.50;;;166.57;;
16387;SDS011;8303;53.446;9.988;2023-05-23T09:32:35;465.63;;;423.40;;
16387;SDS011;8303;53.446;9.988;2023-05-23T09:35:04;172.03;;;161.20;;
16387;SDS011;8303;53.446;9.988;2023-05-23T09:37:37;234.63;;;218.50;;
16387;SDS011;8303;53.446;9.988;2023-05-23T09:40:05;159.33;;;149.70;;
16387;SDS011;8303;53.446;9.988;2023-05-23T09:42:35;146.07;;;137.50;;
16387;SDS011;8303;53.446;9.988;2023-05-23T09:45:09;278.20;;;260.17;;
16387;SDS011;8303;53.446;9.988;2023-05-23T09:47:36;205.57;;;189.97;;
16387;SDS011;8303;53.446;9.988;2023-05-23T09:50:04;314.80;;;292.23;;
16387;SDS011;8303;53.446;9.988;2023-05-23T09:52:35;180.47;;;169.50;;
16387;SDS011;8303;53.446;9.988;2023-05-23T09:55:03;184.17;;;172.03;;
16387;SDS011;8303;53.446;9.988;2023-05-23T09:57:32;145.50;;;136.80;;
16387;SDS011;8303;53.446;9.988;2023-05-23T10:00:02;171.43;;;160.50;;
16387;SDS011;8303;53.446;9.988;2023-05-23T10:02:40;237.57;;;222.80;;
16387;SDS011;8303;53.446;9.988;2023-05-23T10:05:25;128.80;;;121.03;;
16387;SDS011;8303;53.446;9.988;2023-05-23T10:08:00;150.93;;;141.70;;
16387;SDS011;8303;53.446;9.988;2023-05-23T10:10:31;266.30;;;243.73;;
16387;SDS011;8303;53.446;9.988;2023-05-23T10:13:01;114.87;;;108.17;;
16387;SDS011;8303;53.446;9.988;2023-05-23T10:15:33;351.67;;;321.17;;
16387;SDS011;8303;53.446;9.988;2023-05-23T10:18:08;101.43;;;95.20;;
16387;SDS011;8303;53.446;9.988;2023-05-23T10:20:42;144.73;;;136.30;;
16387;SDS011;8303;53.446;9.988;2023-05-23T10:23:13;325.90;;;303.80;;
16387;SDS011;8303;53.446;9.988;2023-05-23T10:25:42;119.17;;;112.03;;
16387;SDS011;8303;53.446;9.988;2023-05-23T10:28:10;173.13;;;160.87;;
16387;SDS011;8303;53.446;9.988;2023-05-23T10:30:39;120.30;;;112.93;;
16387;SDS011;8303;53.446;9.988;2023-05-23T10:33:08;132.63;;;124.97;;
16387;SDS011;8303;53.446;9.988;2023-05-23T10:35:41;148.13;;;139.20;;
16387;SDS011;8303;53.446;9.988;2023-05-23T10:38:27;138.53;;;130.03;;
16387;SDS011;8303;53.446;9.988;2023-05-23T10:41:02;141.93;;;132.87;;
16387;SDS011;8303;53.446;9.988;2023-05-23T10:43:39;182.00;;;170.43;;
16387;SDS011;8303;53.446;9.988;2023-05-23T10:46:12;171.07;;;159.67;;
16387;SDS011;8303;53.446;9.988;2023-05-23T10:48:42;144.93;;;135.97;;
16387;SDS011;8303;53.446;9.988;2023-05-23T10:51:10;100.27;;;94.10;;
16387;SDS011;8303;53.446;9.988;2023-05-23T10:53:38;505.63;;;451.93;;
16387;SDS011;8303;53.446;9.988;2023-05-23T10:56:08;62.50;;;58.43;;
16387;SDS011;8303;53.446;9.988;2023-05-23T10:58:36;542.53;;;495.93;;
16387;SDS011;8303;53.446;9.988;2023-05-23T11:01:05;119.37;;;108.67;;
16387;SDS011;8303;53.446;9.988;2023-05-23T11:03:34;219.73;;;162.47;;
16387;SDS011;8303;53.446;9.988;2023-05-23T11:06:04;39.77;;;36.23;;
16387;SDS011;8303;53.446;9.988;2023-05-23T11:08:38;101.13;;;92.97;;
16387;SDS011;8303;53.446;9.988;2023-05-23T11:11:06;222.03;;;200.60;;
16387;SDS011;8303;53.446;9.988;2023-05-23T11:16:24;50.37;;;46.03;;
16387;SDS011;8303;53.446;9.988;2023-05-23T11:18:51;22.80;;;21.00;;
16387;SDS011;8303;53.446;9.988;2023-05-23T11:21:43;24.60;;;22.00;;
16387;SDS011;8303;53.446;9.988;2023-05-23T11:24:11;19.73;;;17.73;;
16387;SDS011;8303;53.446;9.988;2023-05-23T11:26:38;26.33;;;23.70;;
16387;SDS011;8303;53.446;9.988;2023-05-23T11:29:07;19.60;;;17.73;;
16387;SDS011;8303;53.446;9.988;2023-05-23T11:31:36;23.43;;;21.63;;
16387;SDS011;8303;53.446;9.988;2023-05-23T11:34:02;37.87;;;34.63;;
16387;SDS011;8303;53.446;9.988;2023-05-23T11:36:30;25.13;;;21.37;;
16387;SDS011;8303;53.446;9.988;2023-05-23T11:39:01;20.50;;;18.77;;
16387;SDS011;8303;53.446;9.988;2023-05-23T11:41:29;49.53;;;45.97;;
16387;SDS011;8303;53.446;9.988;2023-05-23T11:43:57;75.30;;;69.67;;
16387;SDS011;8303;53.446;9.988;2023-05-23T11:46:25;28.13;;;25.23;;
16387;SDS011;8303;53.446;9.988;2023-05-23T11:48:52;24.20;;;22.17;;
16387;SDS011;8303;53.446;9.988;2023-05-23T11:51:19;29.83;;;27.33;;
16387;SDS011;8303;53.446;9.988;2023-05-23T11:53:46;27.07;;;24.57;;
16387;SDS011;8303;53.446;9.988;2023-05-23T11:56:14;23.47;;;21.33;;
16387;SDS011;8303;53.446;9.988;2023-05-23T11:58:41;58.53;;;54.47;;
16387;SDS011;8303;53.446;9.988;2023-05-23T12:01:10;31.53;;;28.50;;
16387;SDS011;8303;53.446;9.988;2023-05-23T12:03:43;78.83;;;71.20;;
16387;SDS011;8303;53.446;9.988;2023-05-23T12:06:13;21.40;;;19.37;;
16387;SDS011;8303;53.446;9.988;2023-05-23T12:08:41;75.20;;;67.63;;
16387;SDS011;8303;53.446;9.988;2023-05-23T12:11:08;42.23;;;38.50;;
16387;SDS011;8303;53.446;9.988;2023-05-23T12:13:39;23.50;;;20.77;;
16387;SDS011;8303;53.446;9.988;2023-05-23T12:16:07;48.60;;;44.60;;
16387;SDS011;8303;53.446;9.988;2023-05-23T12:18:36;25.17;;;22.70;;
16387;SDS011;8303;53.446;9.988;2023-05-23T12:21:04;26.80;;;24.60;;
16387;SDS011;8303;53.446;9.988;2023-05-23T12:23:32;28.13;;;25.77;;
16387;SDS011;8303;53.446;9.988;2023-05-23T12:26:02;26.60;;;24.27;;
16387;SDS011;8303;53.446;9.988;2023-05-23T12:28:34;21.90;;;19.63;;
16387;SDS011;8303;53.446;9.988;2023-05-23T12:31:08;19.43;;;17.43;;
16387;SDS011;8303;53.446;9.988;2023-05-23T12:33:37;53.13;;;48.93;;
16387;SDS011;8303;53.446;9.988;2023-05-23T12:36:04;19.83;;;17.13;;
16387;SDS011;8303;53.446;9.988;2023-05-23T12:38:32;31.60;;;28.70;;
16387;SDS011;8303;53.446;9.988;2023-05-23T12:41:08;16.50;;;14.80;;
16387;SDS011;8303;53.446;9.988;2023-05-23T12:43:40;82.50;;;74.37;;
16387;SDS011;8303;53.446;9.988;2023-05-23T12:46:14;29.07;;;22.63;;
16387;SDS011;8303;53.446;9.988;2023-05-23T12:48:41;20.20;;;18.27;;
16387;SDS011;8303;53.446;9.988;2023-05-23T12:51:08;32.13;;;28.77;;
16387;SDS011;8303;53.446;9.988;2023-05-23T12:53:37;21.23;;;15.87;;
16387;SDS011;8303;53.446;9.988;2023-05-23T12:56:04;27.77;;;25.30;;
16387;SDS011;8303;53.446;9.988;2023-05-23T12:58:31;20.43;;;18.30;;
16387;SDS011;8303;53.446;9.988;2023-05-23T13:01:01;46.90;;;43.17;;
16387;SDS011;8303;53.446;9.988;2023-05-23T13:03:28;19.63;;;17.70;;
16387;SDS011;8303;53.446;9.988;2023-05-23T13:05:56;56.30;;;51.63;;
16387;SDS011;8303;53.446;9.988;2023-05-23T13:08:23;88.80;;;81.80;;
16387;SDS011;8303;53.446;9.988;2023-05-23T13:10:51;151.70;;;135.80;;
16387;SDS011;8303;53.446;9.988;2023-05-23T13:13:19;27.20;;;24.57;;
16387;SDS011;8303;53.446;9.988;2023-05-23T13:15:46;41.00;;;38.03;;
16387;SDS011;8303;53.446;9.988;2023-05-23T13:18:15;99.07;;;89.37;;
16387;SDS011;8303;53.446;9.988;2023-05-23T13:20:42;42.10;;;35.50;;
16387;SDS011;8303;53.446;9.988;2023-05-23T13:23:09;89.80;;;82.13;;
16387;SDS011;8303;53.446;9.988;2023-05-23T13:25:36;18.73;;;15.10;;
16387;SDS011;8303;53.446;9.988;2023-05-23T13:28:03;40.40;;;37.13;;
16387;SDS011;8303;53.446;9.988;2023-05-23T13:30:30;29.07;;;26.13;;
16387;SDS011;8303;53.446;9.988;2023-05-23T13:32:57;66.03;;;60.50;;
16387;SDS011;8303;53.446;9.988;2023-05-23T13:35:26;82.97;;;77.97;;
16387;SDS011;8303;53.446;9.988;2023-05-23T13:37:52;60.07;;;56.37;;
16387;SDS011;8303;53.446;9.988;2023-05-23T13:40:20;82.33;;;77.07;;
16387;SDS011;8303;53.446;9.988;2023-05-23T13:42:48;96.47;;;90.83;;
16387;SDS011;8303;53.446;9.988;2023-05-23T13:45:16;81.83;;;76.67;;
16387;SDS011;8303;53.446;9.988;2023-05-23T13:47:43;52.57;;;48.80;;
16387;SDS011;8303;53.446;9.988;2023-05-23T13:50:11;35.67;;;33.13;;
16387;SDS011;8303;53.446;9.988;2023-05-23T13:52:39;25.08;;;22.98;;
16387;SDS011;8303;53.446;9.988;2023-05-23T13:55:07;39.90;;;37.03;;
16387;SDS011;8303;53.446;9.988;2023-05-23T13:57:35;20.90;;;18.90;;
16387;SDS011;8303;53.446;9.988;2023-05-23T14:00:02;74.73;;;68.90;;
16387;SDS011;8303;53.446;9.988;2023-05-23T14:02:29;120.40;;;112.97;;
16387;SDS011;8303;53.446;9.988;2023-05-23T14:04:56;111.00;;;104.23;;
16387;SDS011;8303;53.446;9.988;2023-05-23T14:07:23;289.93;;;266.47;;
16387;SDS011;8303;53.446;9.988;2023-05-23T14:09:51;84.90;;;79.80;;
16387;SDS011;8303;53.446;9.988;2023-05-23T14:12:18;93.70;;;87.23;;
16387;SDS011;8303;53.446;9.988;2023-05-23T14:14:45;56.07;;;52.03;;
16387;SDS011;8303;53.446;9.988;2023-05-23T14:17:15;59.53;;;55.70;;
16387;SDS011;8303;53.446;9.988;2023-05-23T14:19:42;60.73;;;56.57;;
16387;SDS011;8303;53.446;9.988;2023-05-23T14:22:09;89.40;;;83.30;;
16387;SDS011;8303;53.446;9.988;2023-05-23T14:24:36;49.30;;;45.50;;
16387;SDS011;8303;53.446;9.988;2023-05-23T14:27:04;120.73;;;113.10;;
16387;SDS011;8303;53.446;9.988;2023-05-23T14:29:31;265.17;;;249.07;;
16387;SDS011;8303;53.446;9.988;2023-05-23T14:31:58;88.67;;;82.83;;
16387;SDS011;8303;53.446;9.988;2023-05-23T14:34:27;70.77;;;65.27;;
16387;SDS011;8303;53.446;9.988;2023-05-23T14:36:54;80.67;;;75.73;;
16387;SDS011;8303;53.446;9.988;2023-05-23T14:39:21;76.20;;;71.33;;
16387;SDS011;8303;53.446;9.988;2023-05-23T14:41:49;60.93;;;56.70;;
16387;SDS011;8303;53.446;9.988;2023-05-23T14:44:17;81.53;;;76.40;;
16387;SDS011;8303;53.446;9.988;2023-05-23T14:46:44;64.03;;;59.57;;
16387;SDS011;8303;53.446;9.988;2023-05-23T14:49:13;64.47;;;59.33;;
16387;SDS011;8303;53.446;9.988;2023-05-23T14:51:40;41.50;;;37.70;;
16387;SDS011;8303;53.446;9.988;2023-05-23T14:54:06;188.00;;;175.23;;
16387;SDS011;8303;53.446;9.988;2023-05-23T14:56:34;132.03;;;119.87;;
16387;SDS011;8303;53.446;9.988;2023-05-23T14:59:01;115.07;;;106.43;;
16387;SDS011;8303;53.446;9.988;2023-05-23T15:01:30;90.03;;;83.70;;
16387;SDS011;8303;53.446;9.988;2023-05-23T15:03:58;180.00;;;168.93;;
16387;SDS011;8303;53.446;9.988;2023-05-23T15:06:25;80.73;;;75.83;;
16387;SDS011;8303;53.446;9.988;2023-05-23T15:08:51;183.63;;;171.40;;
16387;SDS011;8303;53.446;9.988;2023-05-23T15:11:18;85.43;;;79.90;;
16387;SDS011;8303;53.446;9.988;2023-05-23T15:13:45;108.90;;;102.20;;
16387;SDS011;8303;53.446;9.988;2023-05-23T15:16:12;83.13;;;77.67;;
16387;SDS011;8303;53.446;9.988;2023-05-23T15:18:41;68.63;;;63.60;;
16387;SDS011;8303;53.446;9.988;2023-05-23T15:21:08;212.97;;;192.20;;
16387;SDS011;8303;53.446;9.988;2023-05-23T15:23:36;64.70;;;60.10;;
16387;SDS011;8303;53.446;9.988;2023-05-23T15:26:03;308.93;;;280.73;;
16387;SDS011;8303;53.446;9.988;2023-05-23T15:28:30;78.27;;;72.87;;
16387;SDS011;8303;53.446;9.988;2023-05-23T15:30:57;126.60;;;118.23;;
16387;SDS011;8303;53.446;9.988;2023-05-23T15:33:23;140.07;;;131.60;;
16387;SDS011;8303;53.446;9.988;2023-05-23T15:35:52;70.60;;;65.47;;
16387;SDS011;8303;53.446;9.988;2023-05-23T15:38:19;77.43;;;71.77;;
16387;SDS011;8303;53.446;9.988;2023-05-23T15:40:46;124.90;;;117.10;;
16387;SDS011;8303;53.446;9.988;2023-05-23T15:43:13;133.87;;;125.50;;
16387;SDS011;8303;53.446;9.988;2023-05-23T15:45:40;108.37;;;101.90;;
16387;SDS011;8303;53.446;9.988;2023-05-23T15:48:08;102.10;;;95.60;;
16387;SDS011;8303;53.446;9.988;2023-05-23T15:50:35;106.57;;;99.23;;
16387;SDS011;8303;53.446;9.988;2023-05-23T15:53:03;40.77;;;37.40;;
16387;SDS011;8303;53.446;9.988;2023-05-23T15:55:30;51.97;;;46.97;;
16387;SDS011;8303;53.446;9.988;2023-05-23T15:57:57;50.67;;;46.90;;
16387;SDS011;8303;53.446;9.988;2023-05-23T16:00:24;64.17;;;59.33;;
16387;SDS011;8303;53.446;9.988;2023-05-23T16:02:50;60.10;;;55.60;;
16387;SDS011;8303;53.446;9.988;2023-05-23T16:05:17;98.10;;;92.07;;
16387;SDS011;8303;53.446;9.988;2023-05-23T16:07:44;74.20;;;69.20;;
16387;SDS011;8303;53.446;9.988;2023-05-23T16:10:12;43.73;;;40.23;;
16387;SDS011;8303;53.446;9.988;2023-05-23T16:12:39;54.90;;;51.07;;
16387;SDS011;8303;53.446;9.988;2023-05-23T16:15:06;72.40;;;67.63;;
16387;SDS011;8303;53.446;9.988;2023-05-23T16:17:34;108.63;;;101.73;;
16387;SDS011;8303;53.446;9.988;2023-05-23T16:20:01;83.47;;;78.33;;
16387;SDS011;8303;53.446;9.988;2023-05-23T16:22:28;56.43;;;52.20;;
16387;SDS011;8303;53.446;9.988;2023-05-23T16:24:55;214.90;;;201.23;;
16387;SDS011;8303;53.446;9.988;2023-05-23T16:27:23;209.77;;;194.43;;
16387;SDS011;8303;53.446;9.988;2023-05-23T16:29:50;63.90;;;58.30;;
16387;SDS011;8303;53.446;9.988;2023-05-23T16:32:17;110.00;;;100.23;;
16387;SDS011;8303;53.446;9.988;2023-05-23T16:34:44;38.87;;;34.90;;
16387;SDS011;8303;53.446;9.988;2023-05-23T16:37:12;64.13;;;59.40;;
16387;SDS011;8303;53.446;9.988;2023-05-23T16:39:41;103.70;;;93.03;;
16387;SDS011;8303;53.446;9.988;2023-05-23T16:42:08;54.03;;;49.30;;
16387;SDS011;8303;53.446;9.988;2023-05-23T16:44:36;54.73;;;50.27;;
16387;SDS011;8303;53.446;9.988;2023-05-23T16:47:03;57.20;;;53.00;;
16387;SDS011;8303;53.446;9.988;2023-05-23T16:49:30;77.10;;;71.97;;
16387;SDS011;8303;53.446;9.988;2023-05-23T16:51:57;131.60;;;123.40;;
16387;SDS011;8303;53.446;9.988;2023-05-23T16:54:24;68.83;;;64.23;;
16387;SDS011;8303;53.446;9.988;2023-05-23T16:56:51;77.40;;;72.47;;
16387;SDS011;8303;53.446;9.988;2023-05-23T16:59:17;88.43;;;82.73;;
16387;SDS011;8303;53.446;9.988;2023-05-23T17:01:46;138.20;;;128.13;;
16387;SDS011;8303;53.446;9.988;2023-05-23T17:04:12;92.43;;;85.80;;
16387;SDS011;8303;53.446;9.988;2023-05-23T17:06:39;52.97;;;49.17;;
16387;SDS011;8303;53.446;9.988;2023-05-23T17:09:06;103.33;;;96.47;;
16387;SDS011;8303;53.446;9.988;2023-05-23T17:11:35;53.47;;;49.30;;
16387;SDS011;8303;53.446;9.988;2023-05-23T17:14:02;86.67;;;80.73;;
16387;SDS011;8303;53.446;9.988;2023-05-23T17:16:29;79.20;;;73.97;;
16387;SDS011;8303;53.446;9.988;2023-05-23T17:18:58;67.97;;;62.80;;
16387;SDS011;8303;53.446;9.988;2023-05-23T17:21:25;48.83;;;45.10;;
16387;SDS011;8303;53.446;9.988;2023-05-23T17:23:52;66.77;;;62.37;;
16387;SDS011;8303;53.446;9.988;2023-05-23T17:26:19;42.93;;;39.23;;
16387;SDS011;8303;53.446;9.988;2023-05-23T17:28:47;104.67;;;97.73;;
16387;SDS011;8303;53.446;9.988;2023-05-23T17:31:14;226.57;;;212.33;;
16387;SDS011;8303;53.446;9.988;2023-05-23T17:33:42;54.80;;;50.50;;
16387;SDS011;8303;53.446;9.988;2023-05-23T17:36:11;194.63;;;181.90;;
16387;SDS011;8303;53.446;9.988;2023-05-23T17:38:39;128.07;;;119.77;;
16387;SDS011;8303;53.446;9.988;2023-05-23T17:41:06;131.73;;;122.50;;
16387;SDS011;8303;53.446;9.988;2023-05-23T17:43:33;41.73;;;37.53;;
16387;SDS011;8303;53.446;9.988;2023-05-23T17:46:00;66.10;;;60.97;;
16387;SDS011;8303;53.446;9.988;2023-05-23T17:48:28;29.33;;;26.73;;
16387;SDS011;8303;53.446;9.988;2023-05-23T17:50:55;43.53;;;39.10;;
16387;SDS011;8303;53.446;9.988;2023-05-23T17:53:23;60.77;;;55.83;;
16387;SDS011;8303;53.446;9.988;2023-05-23T17:55:52;132.90;;;124.07;;
16387;SDS011;8303;53.446;9.988;2023-05-23T17:58:18;138.10;;;129.17;;
16387;SDS011;8303;53.446;9.988;2023-05-23T18:00:46;110.00;;;103.47;;
16387;SDS011;8303;53.446;9.988;2023-05-23T18:03:14;171.23;;;160.43;;
16387;SDS011;8303;53.446;9.988;2023-05-23T18:05:41;66.07;;;61.47;;
16387;SDS011;8303;53.446;9.988;2023-05-23T18:08:07;119.87;;;112.13;;
16387;SDS011;8303;53.446;9.988;2023-05-23T18:10:36;112.57;;;103.63;;
16387;SDS011;8303;53.446;9.988;2023-05-23T18:13:03;169.23;;;158.10;;
16387;SDS011;8303;53.446;9.988;2023-05-23T18:15:30;94.30;;;87.77;;
16387;SDS011;8303;53.446;9.988;2023-05-23T18:17:57;70.83;;;65.53;;
16387;SDS011;8303;53.446;9.988;2023-05-23T18:20:24;75.80;;;70.00;;
16387;SDS011;8303;53.446;9.988;2023-05-23T18:22:51;127.20;;;118.47;;
16387;SDS011;8303;53.446;9.988;2023-05-23T18:25:19;68.30;;;63.40;;
16387;SDS011;8303;53.446;9.988;2023-05-23T18:27:53;44.43;;;40.20;;
16387;SDS011;8303;53.446;9.988;2023-05-23T18:30:22;97.80;;;90.80;;
16387;SDS011;8303;53.446;9.988;2023-05-23T18:32:50;62.73;;;57.70;;
16387;SDS011;8303;53.446;9.988;2023-05-23T18:35:17;200.03;;;184.23;;
16387;SDS011;8303;53.446;9.988;2023-05-23T18:37:44;203.10;;;190.20;;
16387;SDS011;8303;53.446;9.988;2023-05-23T18:40:11;87.23;;;81.43;;
16387;SDS011;8303;53.446;9.988;2023-05-23T18:42:38;42.60;;;38.63;;
16387;SDS011;8303;53.446;9.988;2023-05-23T18:45:07;43.13;;;38.87;;
16387;SDS011;8303;53.446;9.988;2023-05-23T18:47:35;57.93;;;53.60;;
16387;SDS011;8303;53.446;9.988;2023-05-23T18:50:01;118.33;;;110.27;;
16387;SDS011;8303;53.446;9.988;2023-05-23T18:52:29;55.73;;;51.37;;
16387;SDS011;8303;53.446;9.988;2023-05-23T18:55:01;63.83;;;59.40;;
16387;SDS011;8303;53.446;9.988;2023-05-23T18:57:28;60.27;;;56.00;;
16387;SDS011;8303;53.446;9.988;2023-05-23T18:59:55;54.83;;;50.43;;
16387;SDS011;8303;53.446;9.988;2023-05-23T19:02:24;71.70;;;66.80;;
16387;SDS011;8303;53.446;9.988;2023-05-23T19:04:51;111.90;;;103.87;;
16387;SDS011;8303;53.446;9.988;2023-05-23T19:07:19;55.80;;;50.90;;
16387;SDS011;8303;53.446;9.988;2023-05-23T19:09:46;53.67;;;48.93;;